Flight Track Log - Related Links

Times and Time Zones

All times are in EDT time to prevent confusion due to time zone crossing. See the VH-TVL flight status page for this flight to view local times or setup timezone preferences in your user account.

Time Position Orientation Groundspeed Altitude Reporting Facility
EDT Latitude Longitude Course Direction KTS MPH feet Rate Location/Type
Thu 10:27:15 PM -32.0309 115.7793 352° North 91 105 1,300  Level Aus ATC (RADAR)
Thu 10:28:15 PM -32.0091 115.7757 352° North 73 84 1,000 -164 Descending Aus ATC (RADAR)
Thu 10:29:05 PM -32.0033 115.7863 57° Northeast 64 74 1,000  Level Aus ATC (RADAR)
Thu 10:29:40 PM -32.0030 115.8007 89° East 71 82 1,000 -124 Level Aus ATC (RADAR)
Thu 10:31:30 PM -31.9956 115.8400 77° East 57 66 700 -141 Descending Aus ATC (RADAR)
Thu 10:32:30 PM -31.9962 115.8466 97° East 30 35 600 -126 Descending Aus ATC (RADAR)
Thu 10:33:05 PM -31.9964 115.8459 258° West 9 10 500 -86 Descending Aus ATC (RADAR)
Thu 10:33:40 PM -31.9968 115.8444 250° West 10 12 500 424 Level Aus ATC (RADAR)
Thu 10:34:30 PM -32.0048 115.8382 213° Southwest 47 54 1,100 200 Climbing Aus ATC (RADAR)
Thu 10:36:10 PM -32.0185 115.8452 157° South 30 35 1,000 -38 Descending Aus ATC (RADAR)
Thu 10:37:10 PM -32.0202 115.8464 149° Southeast 15 17 1,000  Level Aus ATC (RADAR)
Thu 10:38:00 PM -32.0224 115.8467 173° South 10 12 1,000  Level Aus ATC (RADAR)
Thu 10:38:35 PM -32.0215 115.8523 79° East 29 33 1,000  Level Aus ATC (RADAR)
Thu 10:39:24 PM -32.0179 115.8548 30° Northeast 12 14 1,000 -75 Level Aus ATC (RADAR)
Thu 10:41:14 PM -32.0002 115.8494 346° North 58 67 800 -188 Descending Aus ATC (RADAR)
Thu 10:42:04 PM -31.9857 115.8458 348° North 51 59 500 -267 Descending Aus ATC (RADAR)
Thu 10:42:44 PM -31.9861 115.8467 116° Southeast 6 7 400  Descending Aus ATC (RADAR)
Thu 10:43:14 PM -31.9861 115.8470 88° East 3 3 500 92 Climbing Aus ATC (RADAR)
Thu 10:43:49 PM -31.9865 115.8476 129° Southeast 4 5 500  Level Aus ATC (RADAR)
Thu 10:44:29 PM -31.9833 115.8457 332° Northwest 20 23 500  Level Aus ATC (RADAR)
Thu 10:45:04 PM -31.9817 115.8453 348° North 10 12 500 218 Level Aus ATC (RADAR)
Thu 10:46:19 PM -31.9821 115.8479 99° East 9 10 900 222 Climbing Aus ATC (RADAR)
Thu 10:47:19 PM -31.9816 115.8488 59° Northeast 6 7 1,000 63 Climbing Aus ATC (RADAR)
Thu 10:47:54 PM -31.9849 115.8497 167° South 24 28 1,000  Level Aus ATC (RADAR)
Thu 10:48:29 PM -31.9847 115.8507 77° East 9 10 1,000  Level Aus ATC (RADAR)
Thu 10:49:18 PM -31.9849 115.8521 100° East 8 9 1,000  Level Aus ATC (RADAR)
Thu 10:50:18 PM -31.9835 115.8489 296° West 19 22 1,000 -48 Level Aus ATC (RADAR)
Thu 10:51:23 PM -31.9816 115.8458 306° West 8 9 900  Descending Aus ATC (RADAR)
Thu 10:52:23 PM -31.9817 115.8469 92° East 3 3 1,000 55 Climbing Aus ATC (RADAR)
Thu 10:53:13 PM -31.9820 115.8480 108° East 4 5 1,000 67 Level Aus ATC (RADAR)
Thu 10:53:53 PM -31.9832 115.8473 205° Southwest 8 9 1,100 -67 Climbing Aus ATC (RADAR)
Thu 10:54:43 PM -31.9867 115.8476 176° South 20 23 900 -44 Descending Aus ATC (RADAR)
Thu 10:56:08 PM -32.0031 115.8207 234° Southwest 80 92 1,000 52 Climbing Aus ATC (RADAR)
Thu 10:56:38 PM -32.0095 115.8082 239° Southwest 88 101 1,000 255 Level Aus ATC (RADAR)
Thu 10:57:42 PM -32.0220 115.7774 245° Southwest 95 109 1,400 173 Climbing Aus ATC (RADAR)
Thu 10:58:22 PM -32.0355 115.7613 225° Southwest 99 114 1,300  Descending Aus ATC (RADAR)
Thu 10:59:02 PM -32.0506 115.7511 210° Southwest 95 109 1,400 71 Climbing Aus ATC (RADAR)
Thu 10:59:47 PM -32.0605 115.7373 230° Southwest 80 92 1,400  Level Aus ATC (RADAR)
Thu 11:00:22 PM -32.0689 115.7436 147° Southeast 60 69 1,400  Level Aus ATC (RADAR)
Thu 11:01:42 PM -32.0920 115.7581 152° Southeast 71 82 1,400 43 Level Aus ATC (RADAR)
Thu 11:02:42 PM -32.0938 115.7815 95° East 70 81 1,500 60 Climbing Aus ATC (RADAR)
Thu 11:03:22 PM -32.0934 115.7994 89° East 81 93 1,500 -80 Level Aus ATC (RADAR)
Thu 11:03:57 PM -32.0924 115.8168 86° East 87 100 1,400 -225 Descending Aus ATC (RADAR)
Thu 11:04:42 PM -32.0900 115.8381 83° East 80 92 1,200 -483 Descending Aus ATC (RADAR)
Thu 11:06:26 PM -32.0844 115.8773 80° East 56 64 200 -426 Descending Aus ATC (RADAR)
Thu 11:07:17 PM -32.0843 115.8824 89° East 15 17 100 -118 Descending Aus ATC (RADAR)

Login

Don't have an account? Register now (free) for customized features, flight alerts, and more!